YCB weather

Cambridge Bay Airport
Cambridge Bay, Nunavut, Canada

Public forecast

Using degrees Celsius for public forecast. Weather courtesy of forecast.io.

METAR (pilot weather report)

Retrieved 2019/07/17 22:00 UTC (26 minutes ago):

CYCB 172200Z 30009G15KT 15SM BKN023 11/07 A2955 RMK SC5 SLP012 DENSITY ALT 200FT

TAF (pilot weather forecast)

Retrieved 2019/07/17 19:45 UTC (3 hours ago):

TAF TAF CYCB 171843Z 1719/1807 23010KT P6SM OVC020 TEMPO 1719/1807 SCT020 BKN050 BECMG 1721/1723 31010KT RMK NXT FCST BY 180100Z